createdAt,value
2023-02-17T00:00:18.553Z,16.75
2023-02-17T00:01:18.555Z,16.68
2023-02-17T00:02:18.567Z,16.71
2023-02-17T00:03:18.568Z,16.68
2023-02-17T00:04:18.557Z,16.67
2023-02-17T00:05:18.533Z,16.75
2023-02-17T00:06:18.515Z,16.75
2023-02-17T00:07:18.519Z,16.75
2023-02-17T00:08:18.518Z,16.68
2023-02-17T00:09:18.512Z,16.71
2023-02-17T00:10:18.495Z,16.71
2023-02-17T00:11:18.493Z,16.70
2023-02-17T00:12:18.483Z,16.71
2023-02-17T00:13:18.494Z,16.71
2023-02-17T00:14:18.495Z,16.68
2023-02-17T00:15:18.486Z,16.75
2023-02-17T00:16:18.676Z,16.75
2023-02-17T00:17:18.465Z,16.71
2023-02-17T00:18:18.477Z,16.70
2023-02-17T00:19:18.486Z,16.73
2023-02-17T00:20:18.463Z,16.73
2023-02-17T00:21:18.455Z,16.73
2023-02-17T00:22:18.445Z,16.68
2023-02-17T00:23:18.441Z,16.70
2023-02-17T00:24:18.428Z,16.71
2023-02-17T00:25:18.421Z,16.70
2023-02-17T00:26:18.428Z,16.76
2023-02-17T00:27:18.428Z,16.71
2023-02-17T00:28:18.422Z,16.73
2023-02-17T00:29:18.420Z,16.68
2023-02-17T00:30:18.422Z,16.75
2023-02-17T00:31:18.479Z,16.76
2023-02-17T00:32:18.407Z,16.75
2023-02-17T00:33:18.402Z,16.71
2023-02-17T00:34:18.390Z,16.70
2023-02-17T00:35:18.416Z,16.71
2023-02-17T00:36:18.423Z,16.73
2023-02-17T00:37:18.366Z,16.71
2023-02-17T00:38:18.384Z,16.76
2023-02-17T00:39:18.364Z,16.71
2023-02-17T00:40:18.365Z,16.78
2023-02-17T00:41:18.366Z,16.82
2023-02-17T00:42:18.350Z,16.73
2023-02-17T00:43:18.345Z,16.85
2023-02-17T00:44:18.367Z,16.76
2023-02-17T00:45:18.351Z,16.73
2023-02-17T00:46:18.391Z,16.83
2023-02-17T00:47:18.350Z,16.83
2023-02-17T00:48:18.355Z,16.70
2023-02-17T00:49:18.332Z,16.78
2023-02-17T00:50:18.313Z,16.71
2023-02-17T00:51:18.327Z,16.75
2023-02-17T00:52:18.331Z,16.76
2023-02-17T00:53:18.325Z,16.78
2023-02-17T00:54:18.295Z,16.83
2023-02-17T00:55:18.302Z,16.71
2023-02-17T00:56:18.311Z,16.71
2023-02-17T00:57:18.295Z,16.78
2023-02-17T00:58:18.299Z,16.82
2023-02-17T00:59:18.270Z,16.81
2023-02-17T01:00:18.272Z,16.70
2023-02-17T01:01:18.309Z,16.76
2023-02-17T01:02:18.275Z,16.75
2023-02-17T01:03:18.252Z,16.76
2023-02-17T01:04:18.264Z,16.75
2023-02-17T01:05:18.250Z,16.79
2023-02-17T01:06:18.262Z,16.73
2023-02-17T01:07:18.292Z,16.81
2023-02-17T01:08:18.255Z,16.81
2023-02-17T01:09:18.245Z,16.76
2023-02-17T01:10:18.229Z,16.75
2023-02-17T01:11:18.222Z,16.73
2023-02-17T01:12:18.234Z,16.76
2023-02-17T01:13:18.224Z,16.76
2023-02-17T01:14:18.211Z,16.82
2023-02-17T01:15:18.205Z,16.82
2023-02-17T01:16:18.281Z,16.76
2023-02-17T01:17:18.186Z,16.78
2023-02-17T01:18:18.188Z,16.76
2023-02-17T01:19:18.197Z,16.75
2023-02-17T01:20:18.203Z,16.76
2023-02-17T01:21:18.185Z,16.78
2023-02-17T01:22:18.186Z,16.76
2023-02-17T01:23:18.205Z,16.81
2023-02-17T01:24:18.180Z,16.79
2023-02-17T01:25:18.155Z,16.70
2023-02-17T01:26:18.154Z,16.81
2023-02-17T01:27:18.144Z,16.78
2023-02-17T01:28:18.150Z,16.76
2023-02-17T01:29:18.153Z,16.76
2023-02-17T01:30:18.151Z,16.76
2023-02-17T01:31:18.252Z,16.78
2023-02-17T01:32:18.126Z,16.81
2023-02-17T01:33:18.116Z,16.78
2023-02-17T01:34:18.115Z,16.81
2023-02-17T01:35:18.117Z,16.76
2023-02-17T01:36:18.105Z,16.85
2023-02-17T01:37:18.121Z,16.75
2023-02-17T01:38:18.118Z,16.75
2023-02-17T01:39:18.121Z,16.76
2023-02-17T01:40:18.092Z,16.81
2023-02-17T01:41:18.100Z,16.81
2023-02-17T01:42:18.093Z,16.81
2023-02-17T01:43:18.080Z,16.76
2023-02-17T01:44:18.142Z,16.76
2023-02-17T01:45:18.079Z,16.82
2023-02-17T01:46:18.105Z,16.73
2023-02-17T01:47:18.048Z,16.79
2023-02-17T01:48:18.060Z,16.81
2023-02-17T01:49:18.052Z,16.81
2023-02-17T01:50:18.044Z,16.75
2023-02-17T01:51:18.044Z,16.82
2023-02-17T01:52:18.034Z,16.78
2023-02-17T01:53:18.036Z,16.75
2023-02-17T01:54:18.038Z,16.76
2023-02-17T01:55:18.056Z,16.76
2023-02-17T01:56:18.042Z,16.78
2023-02-17T01:57:18.042Z,16.79
2023-02-17T01:58:18.012Z,16.78
2023-02-17T01:59:18.006Z,16.75
2023-02-17T02:00:18.020Z,16.78
2023-02-17T02:01:17.979Z,16.76
2023-02-17T02:02:18.070Z,16.76
2023-02-17T02:03:17.987Z,16.78
2023-02-17T02:04:17.984Z,16.78
2023-02-17T02:05:17.960Z,16.78
2023-02-17T02:06:17.968Z,16.82
2023-02-17T02:07:17.971Z,16.81
2023-02-17T02:08:17.961Z,16.78
2023-02-17T02:09:17.946Z,16.73
2023-02-17T02:10:17.964Z,16.75
2023-02-17T02:11:17.973Z,16.78
2023-02-17T02:12:17.934Z,16.76
2023-02-17T02:13:17.929Z,16.82
2023-02-17T02:14:17.954Z,16.79
2023-02-17T02:15:17.934Z,16.79
2023-02-17T02:16:17.998Z,16.83
2023-02-17T02:17:17.910Z,16.79
2023-02-17T02:18:17.920Z,16.81
2023-02-17T02:19:17.900Z,16.76
2023-02-17T02:20:17.917Z,16.82
2023-02-17T02:21:17.914Z,16.76
2023-02-17T02:22:17.911Z,16.75
2023-02-17T02:23:17.890Z,16.82
2023-02-17T02:24:17.893Z,16.78
2023-02-17T02:25:17.880Z,16.71
2023-02-17T02:26:17.875Z,16.79
2023-02-17T02:27:17.887Z,16.76
2023-02-17T02:28:17.891Z,16.75
2023-02-17T02:29:17.860Z,16.70
2023-02-17T02:30:17.906Z,16.81
2023-02-17T02:31:17.984Z,16.78
2023-02-17T02:32:17.863Z,16.78
2023-02-17T02:33:17.850Z,16.85
2023-02-17T02:34:17.838Z,16.75
2023-02-17T02:35:17.840Z,16.85
2023-02-17T02:36:17.856Z,16.76
2023-02-17T02:37:17.821Z,16.75
2023-02-17T02:38:17.830Z,16.78
2023-02-17T02:39:17.838Z,16.75
2023-02-17T02:40:17.821Z,16.78
2023-02-17T02:41:17.807Z,16.75
2023-02-17T02:42:17.829Z,16.79
2023-02-17T02:43:17.825Z,16.86
2023-02-17T02:44:17.809Z,16.81
2023-02-17T02:45:17.802Z,16.75
2023-02-17T02:46:17.804Z,16.75
2023-02-17T02:47:17.791Z,16.75
2023-02-17T02:48:17.781Z,16.75
2023-02-17T02:49:17.784Z,16.75
2023-02-17T02:50:17.780Z,16.76
2023-02-17T02:51:17.773Z,16.78
2023-02-17T02:52:17.758Z,16.73
2023-02-17T02:53:17.763Z,16.75
2023-02-17T02:54:17.782Z,16.78
2023-02-17T02:55:17.743Z,16.79
2023-02-17T02:56:17.757Z,16.78
2023-02-17T02:57:17.731Z,16.70
2023-02-17T02:58:17.735Z,16.76
2023-02-17T02:59:17.761Z,16.81
2023-02-17T03:00:17.735Z,16.76
2023-02-17T03:01:17.758Z,16.79
2023-02-17T03:02:17.712Z,16.73
2023-02-17T03:03:17.719Z,16.76
2023-02-17T03:04:17.779Z,16.81
2023-02-17T03:05:17.715Z,16.79
2023-02-17T03:06:17.707Z,16.73
2023-02-17T03:07:17.698Z,16.71
2023-02-17T03:08:17.708Z,16.73
2023-02-17T03:09:17.689Z,16.79
2023-02-17T03:10:17.678Z,16.76
2023-02-17T03:11:17.682Z,16.76
2023-02-17T03:12:17.686Z,16.75
2023-02-17T03:13:17.694Z,16.78
2023-02-17T03:14:17.670Z,16.75
2023-02-17T03:15:17.678Z,16.79
2023-02-17T03:16:17.712Z,16.79
2023-02-17T03:17:17.644Z,16.78
2023-02-17T03:18:20.291Z,16.75
2023-02-17T03:19:17.626Z,16.79
2023-02-17T03:20:17.641Z,16.82
2023-02-17T03:21:17.692Z,16.79
2023-02-17T03:22:17.651Z,16.79
2023-02-17T03:23:17.615Z,16.83
2023-02-17T03:24:17.626Z,16.82
2023-02-17T03:25:17.618Z,16.75
2023-02-17T03:26:17.602Z,16.78
2023-02-17T03:27:17.591Z,16.79
2023-02-17T03:28:17.595Z,16.76
2023-02-17T03:29:17.589Z,16.79
2023-02-17T03:30:17.597Z,16.75
2023-02-17T03:31:17.750Z,16.79
2023-02-17T03:32:20.873Z,16.75
2023-02-17T03:33:18.818Z,16.71
2023-02-17T03:34:17.587Z,16.85
2023-02-17T03:35:17.555Z,16.75
2023-02-17T03:36:17.569Z,16.71
2023-02-17T03:37:17.550Z,16.86
2023-02-17T03:38:17.570Z,16.75
2023-02-17T03:39:17.565Z,16.78
2023-02-17T03:40:17.534Z,16.86
2023-02-17T03:41:17.531Z,16.76
2023-02-17T03:42:17.532Z,16.73
2023-02-17T03:43:18.124Z,16.88
2023-02-17T03:44:17.531Z,16.75
2023-02-17T03:45:17.511Z,16.85
2023-02-17T03:46:17.555Z,16.73
2023-02-17T03:47:17.540Z,16.75
2023-02-17T03:48:17.528Z,16.83
2023-02-17T03:49:17.492Z,16.75
2023-02-17T03:50:17.499Z,16.85
2023-02-17T03:51:17.500Z,16.85
2023-02-17T03:52:17.496Z,16.85
2023-02-17T03:53:17.484Z,16.75
2023-02-17T03:54:17.484Z,16.76
2023-02-17T03:55:17.469Z,16.85
2023-02-17T03:56:17.482Z,16.73
2023-02-17T03:57:17.469Z,16.75
2023-02-17T03:58:17.460Z,16.75
2023-02-17T03:59:17.459Z,16.81
2023-02-17T04:00:17.449Z,16.78
2023-02-17T04:01:17.532Z,16.79
2023-02-17T04:02:17.451Z,16.79
2023-02-17T04:03:17.460Z,16.85
2023-02-17T04:04:17.481Z,16.86
2023-02-17T04:05:17.450Z,16.75
2023-02-17T04:06:17.414Z,16.75
2023-02-17T04:07:17.409Z,16.73
2023-02-17T04:08:17.404Z,16.86
2023-02-17T04:09:17.422Z,16.78
2023-02-17T04:10:17.396Z,16.75
2023-02-17T04:11:17.389Z,16.76
2023-02-17T04:12:17.383Z,16.91
2023-02-17T04:13:17.386Z,16.83
2023-02-17T04:14:17.370Z,16.75
2023-02-17T04:15:17.373Z,16.82
2023-02-17T04:16:17.368Z,16.86
2023-02-17T04:17:17.381Z,16.75
2023-02-17T04:18:17.382Z,16.83
2023-02-17T04:19:18.437Z,16.76
2023-02-17T04:20:17.344Z,16.81
2023-02-17T04:21:17.348Z,16.82
2023-02-17T04:22:17.346Z,16.86
2023-02-17T04:23:17.334Z,16.79
2023-02-17T04:24:17.346Z,16.86
2023-02-17T04:25:17.327Z,16.85
2023-02-17T04:26:17.336Z,16.83
2023-02-17T04:27:17.328Z,16.85
2023-02-17T04:28:17.323Z,16.85
2023-02-17T04:29:17.305Z,16.89
2023-02-17T04:30:17.343Z,16.88
2023-02-17T04:31:17.447Z,16.88
2023-02-17T04:32:17.286Z,16.89
2023-02-17T04:33:17.289Z,16.82
2023-02-17T04:34:17.294Z,16.86
2023-02-17T04:35:17.304Z,16.85
2023-02-17T04:36:17.272Z,16.86
2023-02-17T04:37:17.286Z,16.83
2023-02-17T04:38:17.262Z,16.88
2023-02-17T04:39:17.274Z,16.89
2023-02-17T04:40:17.267Z,16.81
2023-02-17T04:41:17.278Z,16.83
2023-02-17T04:42:17.256Z,16.85
2023-02-17T04:43:17.258Z,16.78
2023-02-17T04:44:17.254Z,16.83
2023-02-17T04:45:17.235Z,16.86
2023-02-17T04:46:17.269Z,16.85
2023-02-17T04:47:17.223Z,16.85
2023-02-17T04:48:17.222Z,16.86
2023-02-17T04:49:17.224Z,16.85
2023-02-17T04:50:17.983Z,16.88
2023-02-17T04:51:17.238Z,16.85
2023-02-17T04:52:17.216Z,16.94
2023-02-17T04:53:17.208Z,16.82
2023-02-17T04:54:17.190Z,16.79
2023-02-17T04:55:17.188Z,16.83
2023-02-17T04:56:17.200Z,16.85
2023-02-17T04:57:17.199Z,16.91
2023-02-17T04:58:17.206Z,16.86
2023-02-17T04:59:17.171Z,16.85
2023-02-17T05:00:17.185Z,16.94
2023-02-17T05:01:17.221Z,16.91
2023-02-17T05:02:17.152Z,16.88
2023-02-17T05:03:17.172Z,16.83
2023-02-17T05:04:17.169Z,16.88
2023-02-17T05:05:17.156Z,16.89
2023-02-17T05:06:17.131Z,16.85
2023-02-17T05:07:17.167Z,16.85
2023-02-17T05:08:17.135Z,16.89
2023-02-17T05:09:17.151Z,16.85
2023-02-17T05:10:17.116Z,16.86
2023-02-17T05:11:17.110Z,16.88
2023-02-17T05:12:17.107Z,16.83
2023-02-17T05:13:17.130Z,16.91
2023-02-17T05:14:17.125Z,16.94
2023-02-17T05:15:17.109Z,16.88
2023-02-17T05:16:17.179Z,16.91
2023-02-17T05:17:17.092Z,16.81
2023-02-17T05:18:17.103Z,16.93
2023-02-17T05:19:17.088Z,16.93
2023-02-17T05:20:17.080Z,16.89
2023-02-17T05:21:17.081Z,16.93
2023-02-17T05:22:17.077Z,16.86
2023-02-17T05:23:17.094Z,16.91
2023-02-17T05:24:17.064Z,16.96
2023-02-17T05:25:17.059Z,16.89
2023-02-17T05:26:17.058Z,16.85
2023-02-17T05:27:17.060Z,16.96
2023-02-17T05:28:17.058Z,16.91
2023-02-17T05:29:17.033Z,16.91
2023-02-17T05:30:17.068Z,16.96
2023-02-17T05:31:17.127Z,16.93
2023-02-17T05:32:17.042Z,16.93
2023-02-17T05:33:17.025Z,16.91
2023-02-17T05:34:17.015Z,16.94
2023-02-17T05:35:17.019Z,16.94
2023-02-17T05:36:17.011Z,16.94
2023-02-17T05:37:17.002Z,16.82
2023-02-17T05:38:16.998Z,16.85
2023-02-17T05:39:17.007Z,16.81
2023-02-17T05:40:16.984Z,16.85
2023-02-17T05:41:16.976Z,16.82
2023-02-17T05:42:16.987Z,16.93
2023-02-17T05:43:16.966Z,16.93
2023-02-17T05:44:16.963Z,16.91
2023-02-17T05:45:16.989Z,16.94
2023-02-17T05:46:17.004Z,16.89
2023-02-17T05:47:16.967Z,16.83
2023-02-17T05:48:16.949Z,16.94
2023-02-17T05:49:16.946Z,16.81
2023-02-17T05:50:16.954Z,16.94
2023-02-17T05:51:16.936Z,16.85
2023-02-17T05:52:16.932Z,16.83
2023-02-17T05:53:16.928Z,16.89
2023-02-17T05:54:16.921Z,16.82
2023-02-17T05:55:16.971Z,16.83
2023-02-17T05:56:16.912Z,16.83
2023-02-17T05:57:16.910Z,16.93
2023-02-17T05:58:16.909Z,16.93
2023-02-17T05:59:16.911Z,16.96
2023-02-17T06:00:16.899Z,16.97
2023-02-17T06:01:16.909Z,16.94
2023-02-17T06:02:16.899Z,16.83
2023-02-17T06:03:17.008Z,16.83
2023-02-17T06:04:16.953Z,16.93
2023-02-17T06:05:16.886Z,16.91
2023-02-17T06:06:16.867Z,16.91
2023-02-17T06:07:16.879Z,16.97
2023-02-17T06:08:16.863Z,16.94
2023-02-17T06:09:16.857Z,16.96
2023-02-17T06:10:16.861Z,16.97
2023-02-17T06:11:16.882Z,16.97
2023-02-17T06:12:16.866Z,16.82
2023-02-17T06:13:16.845Z,16.97
2023-02-17T06:14:16.839Z,16.79
2023-02-17T06:15:16.851Z,16.86
2023-02-17T06:16:16.837Z,16.93
2023-02-17T06:17:16.819Z,16.93
2023-02-17T06:18:16.829Z,16.97
2023-02-17T06:19:16.811Z,16.96
2023-02-17T06:20:16.818Z,16.85
2023-02-17T06:21:16.820Z,16.83
2023-02-17T06:22:18.609Z,16.85
2023-02-17T06:23:16.794Z,16.98
2023-02-17T06:24:16.799Z,16.97
2023-02-17T06:25:16.798Z,16.98
2023-02-17T06:26:16.773Z,16.88
2023-02-17T06:27:16.815Z,16.93
2023-02-17T06:28:16.786Z,16.93
2023-02-17T06:29:16.769Z,16.96
2023-02-17T06:30:16.833Z,16.86
2023-02-17T06:31:16.896Z,16.94
2023-02-17T06:32:16.766Z,16.93
2023-02-17T06:33:16.746Z,16.94
2023-02-17T06:34:16.736Z,16.94
2023-02-17T06:35:16.732Z,16.97
2023-02-17T06:36:16.723Z,16.94
2023-02-17T06:37:16.790Z,16.83
2023-02-17T06:38:16.778Z,16.94
2023-02-17T06:39:16.721Z,16.86
2023-02-17T06:40:16.725Z,16.88
2023-02-17T06:41:16.754Z,16.91
2023-02-17T06:42:16.837Z,16.98
2023-02-17T06:43:16.732Z,16.94
2023-02-17T06:44:16.698Z,16.93
2023-02-17T06:45:16.701Z,16.94
2023-02-17T06:46:16.681Z,16.97
2023-02-17T06:47:16.769Z,16.98
2023-02-17T06:48:16.673Z,16.93
2023-02-17T06:49:16.689Z,16.88
2023-02-17T06:50:16.675Z,16.97
2023-02-17T06:51:16.670Z,16.98
2023-02-17T06:52:16.663Z,16.89
2023-02-17T06:53:16.654Z,16.98
2023-02-17T06:54:16.658Z,16.93
2023-02-17T06:55:16.654Z,16.98
2023-02-17T06:56:16.648Z,16.98
2023-02-17T06:57:16.642Z,17.01
2023-02-17T06:58:16.622Z,16.93
2023-02-17T06:59:16.654Z,16.89
2023-02-17T07:00:16.634Z,16.97
2023-02-17T07:01:16.620Z,17.01
2023-02-17T07:02:16.758Z,17.00
2023-02-17T07:03:16.604Z,16.98
2023-02-17T07:04:16.629Z,16.97
2023-02-17T07:05:16.619Z,16.93
2023-02-17T07:06:16.665Z,16.97
2023-02-17T07:07:16.651Z,16.94
2023-02-17T07:08:16.582Z,17.01
2023-02-17T07:09:16.594Z,16.94
2023-02-17T07:10:16.586Z,16.91
2023-02-17T07:11:16.597Z,16.93
2023-02-17T07:12:16.578Z,16.97
2023-02-17T07:13:16.579Z,16.93
2023-02-17T07:14:16.565Z,16.94
2023-02-17T07:15:16.608Z,17.01
2023-02-17T07:16:16.587Z,16.91
2023-02-17T07:17:16.576Z,16.89
2023-02-17T07:18:16.550Z,16.96
2023-02-17T07:19:16.573Z,17.00
2023-02-17T07:20:16.553Z,16.94
2023-02-17T07:21:16.536Z,16.93
2023-02-17T07:22:16.521Z,16.94
2023-02-17T07:23:16.535Z,16.93
2023-02-17T07:24:16.534Z,16.94
2023-02-17T07:25:16.525Z,16.94
2023-02-17T07:26:16.518Z,16.96
2023-02-17T07:27:16.512Z,16.96
2023-02-17T07:28:16.506Z,16.93
2023-02-17T07:29:16.501Z,16.98
2023-02-17T07:30:16.517Z,16.93
2023-02-17T07:31:16.623Z,17.00
2023-02-17T07:32:16.493Z,16.97
2023-02-17T07:33:16.485Z,16.96
2023-02-17T07:34:16.482Z,16.96
2023-02-17T07:35:16.480Z,17.01
2023-02-17T07:36:16.473Z,16.97
2023-02-17T07:37:16.471Z,16.86
2023-02-17T07:38:16.479Z,16.96
2023-02-17T07:39:16.448Z,16.93
2023-02-17T07:40:16.460Z,16.98
2023-02-17T07:41:16.448Z,17.04
2023-02-17T07:42:16.428Z,16.98
2023-02-17T07:43:16.451Z,16.97
2023-02-17T07:44:16.429Z,16.94
2023-02-17T07:45:16.420Z,16.96
2023-02-17T07:46:16.466Z,16.97
2023-02-17T07:47:16.446Z,16.94
2023-02-17T07:48:16.412Z,16.97
2023-02-17T07:49:16.397Z,16.93
2023-02-17T07:50:16.401Z,16.94
2023-02-17T07:51:16.402Z,16.96
2023-02-17T07:52:16.411Z,16.97
2023-02-17T07:53:16.394Z,16.98
2023-02-17T07:54:16.387Z,17.03
2023-02-17T07:55:16.380Z,17.03
2023-02-17T07:56:16.386Z,16.91
2023-02-17T07:57:16.363Z,17.01
2023-02-17T07:58:16.364Z,16.91
2023-02-17T07:59:16.375Z,17.06
2023-02-17T08:00:16.359Z,16.96
2023-02-17T08:01:16.346Z,16.96
2023-02-17T08:02:16.467Z,16.94
2023-02-17T08:03:16.365Z,16.94
2023-02-17T08:04:16.399Z,17.06
2023-02-17T08:05:16.340Z,16.96
2023-02-17T08:06:16.316Z,16.97
2023-02-17T08:07:16.316Z,16.97
2023-02-17T08:08:16.309Z,16.97
2023-02-17T08:09:16.327Z,17.01
2023-02-17T08:10:16.311Z,17.03
2023-02-17T08:11:16.314Z,16.97
2023-02-17T08:12:16.310Z,17.06
2023-02-17T08:13:16.306Z,16.97
2023-02-17T08:14:16.306Z,16.93
2023-02-17T08:15:16.286Z,16.93
2023-02-17T08:16:16.341Z,16.91
2023-02-17T08:17:16.282Z,17.06
2023-02-17T08:18:16.291Z,17.04
2023-02-17T08:19:16.312Z,17.04
2023-02-17T08:20:16.257Z,16.98
2023-02-17T08:21:16.271Z,17.07
2023-02-17T08:22:16.283Z,17.07
2023-02-17T08:23:16.259Z,17.04
2023-02-17T08:24:16.333Z,17.07
2023-02-17T08:25:16.245Z,17.08
2023-02-17T08:26:16.239Z,17.07
2023-02-17T08:27:16.238Z,17.06
2023-02-17T08:28:16.226Z,17.06
2023-02-17T08:29:16.235Z,17.08
2023-02-17T08:30:16.265Z,17.07
2023-02-17T08:31:16.330Z,17.07
2023-02-17T08:32:16.322Z,17.01
2023-02-17T08:33:16.210Z,17.07
2023-02-17T08:34:16.217Z,17.01
2023-02-17T08:35:16.218Z,17.06
2023-02-17T08:36:16.218Z,17.03
2023-02-17T08:37:16.197Z,17.03
2023-02-17T08:38:16.195Z,17.06
2023-02-17T08:39:16.178Z,17.04
2023-02-17T08:40:16.181Z,17.06
2023-02-17T08:41:16.159Z,17.01
2023-02-17T08:42:16.158Z,17.06
2023-02-17T08:43:16.209Z,17.03
2023-02-17T08:44:16.169Z,17.03
2023-02-17T08:45:16.145Z,17.06
2023-02-17T08:46:16.240Z,17.04
2023-02-17T08:47:16.154Z,17.03
2023-02-17T08:48:16.151Z,17.01
2023-02-17T08:49:16.134Z,17.06
2023-02-17T08:50:16.182Z,17.03
2023-02-17T08:51:16.189Z,17.06
2023-02-17T08:52:16.117Z,17.03
2023-02-17T08:53:16.123Z,17.04
2023-02-17T08:54:16.130Z,17.01
2023-02-17T08:55:16.114Z,17.01
2023-02-17T08:56:16.099Z,17.01
2023-02-17T08:57:16.117Z,17.03
2023-02-17T08:58:16.166Z,17.06
2023-02-17T08:59:16.139Z,17.03
2023-02-17T09:00:16.104Z,17.04
2023-02-17T09:01:16.152Z,17.04
2023-02-17T09:02:16.080Z,16.98
2023-02-17T09:03:16.106Z,17.11
2023-02-17T09:04:16.253Z,17.06
2023-02-17T09:05:16.064Z,17.07
2023-02-17T09:06:16.111Z,17.03
2023-02-17T09:07:16.106Z,16.98
2023-02-17T09:08:16.123Z,17.11
2023-02-17T09:09:16.061Z,17.01
2023-02-17T09:10:16.041Z,17.06
2023-02-17T09:11:16.049Z,17.06
2023-02-17T09:12:16.054Z,17.04
2023-02-17T09:13:16.097Z,17.04
2023-02-17T09:14:16.061Z,17.07
2023-02-17T09:15:16.051Z,17.00
2023-02-17T09:16:16.104Z,17.07
2023-02-17T09:17:16.050Z,17.11
2023-02-17T09:18:16.006Z,17.03
2023-02-17T09:19:16.097Z,17.06
2023-02-17T09:20:24.512Z,17.14
2023-02-17T09:21:16.007Z,17.11
2023-02-17T09:22:30.715Z,17.08
2023-02-17T09:23:16.058Z,17.06
2023-02-17T09:24:15.998Z,17.11
2023-02-17T09:25:15.984Z,17.14
2023-02-17T09:26:16.004Z,17.14
2023-02-17T09:27:16.042Z,17.11
2023-02-17T09:28:15.985Z,17.07
2023-02-17T09:29:15.990Z,17.11
2023-02-17T09:30:16.010Z,17.07
2023-02-17T09:31:16.063Z,17.07
2023-02-17T09:32:16.149Z,17.16
2023-02-17T09:33:15.947Z,17.11
2023-02-17T09:34:16.007Z,17.16
2023-02-17T09:35:15.943Z,17.11
2023-02-17T09:36:15.958Z,17.06
2023-02-17T09:37:15.919Z,17.11
2023-02-17T09:38:15.924Z,17.14
2023-02-17T09:39:15.998Z,17.14
2023-02-17T09:40:15.935Z,17.08
2023-02-17T09:41:15.969Z,17.15
2023-02-17T09:42:15.915Z,17.18
2023-02-17T09:43:15.939Z,17.11
2023-02-17T09:44:15.955Z,17.12
2023-02-17T09:45:15.915Z,17.00
2023-02-17T09:46:15.959Z,17.19
2023-02-17T09:47:15.995Z,17.16
2023-02-17T09:48:15.888Z,17.08
2023-02-17T09:49:15.927Z,17.11
2023-02-17T09:50:15.978Z,17.11
2023-02-17T09:51:15.873Z,17.18
2023-02-17T09:52:15.884Z,17.08
2023-02-17T09:53:15.852Z,17.18
2023-02-17T09:54:15.913Z,17.16
2023-02-17T09:55:15.876Z,17.06
2023-02-17T09:56:15.924Z,17.19
2023-02-17T09:57:15.886Z,17.11
2023-02-17T09:58:15.863Z,17.18
2023-02-17T09:59:15.826Z,17.18
2023-02-17T10:00:15.838Z,17.16
2023-02-17T10:01:15.832Z,17.15
2023-02-17T10:02:15.835Z,17.14
2023-02-17T10:03:17.978Z,17.16
2023-02-17T10:04:16.225Z,17.18
2023-02-17T10:05:15.865Z,17.14
2023-02-17T10:06:15.833Z,17.14
2023-02-17T10:07:16.118Z,17.18
2023-02-17T10:08:15.789Z,17.16
2023-02-17T10:09:15.839Z,17.08
2023-02-17T10:10:15.823Z,17.12
2023-02-17T10:11:15.807Z,17.16
2023-02-17T10:12:15.842Z,17.07
2023-02-17T10:13:15.843Z,17.12
2023-02-17T10:14:15.850Z,17.15
2023-02-17T10:15:17.683Z,17.08
2023-02-17T10:16:15.822Z,17.06
2023-02-17T10:17:15.841Z,17.18
2023-02-17T10:18:15.748Z,17.16
2023-02-17T10:19:15.763Z,17.15
2023-02-17T10:20:15.733Z,17.14
2023-02-17T10:21:15.770Z,17.15
2023-02-17T10:22:15.789Z,17.12
2023-02-17T10:23:15.825Z,17.11
2023-02-17T10:24:15.714Z,17.14
2023-02-17T10:25:15.739Z,17.18
2023-02-17T10:26:15.752Z,17.26
2023-02-17T10:27:15.756Z,17.23
2023-02-17T10:28:15.735Z,17.11
2023-02-17T10:29:15.808Z,17.18
2023-02-17T10:30:15.754Z,17.12
2023-02-17T10:31:15.805Z,17.14
2023-02-17T10:32:18.515Z,17.11
2023-02-17T10:33:15.734Z,17.16
2023-02-17T10:34:15.789Z,17.21
2023-02-17T10:35:15.681Z,17.16
2023-02-17T10:36:15.695Z,17.16
2023-02-17T10:37:15.685Z,17.18
2023-02-17T10:38:15.772Z,17.15
2023-02-17T10:39:15.652Z,17.16
2023-02-17T10:40:15.678Z,17.18
2023-02-17T10:41:15.651Z,17.21
2023-02-17T10:42:15.642Z,17.18
2023-02-17T10:43:15.652Z,17.19
2023-02-17T10:44:15.646Z,17.22
2023-02-17T10:45:15.630Z,17.16
2023-02-17T10:46:15.715Z,17.18
2023-02-17T10:47:15.637Z,17.18
2023-02-17T10:48:15.629Z,17.19
2023-02-17T10:49:15.607Z,17.18
2023-02-17T10:50:15.608Z,17.15
2023-02-17T10:51:15.636Z,17.19
2023-02-17T10:52:15.611Z,17.18
2023-02-17T10:53:15.594Z,17.22
2023-02-17T10:54:15.613Z,17.19
2023-02-17T10:55:22.837Z,17.21
2023-02-17T10:56:15.645Z,17.21
2023-02-17T10:57:15.571Z,17.31
2023-02-17T10:58:15.577Z,17.15
2023-02-17T10:59:15.601Z,17.33
2023-02-17T11:00:15.582Z,17.23
2023-02-17T11:01:15.569Z,17.33
2023-02-17T11:02:15.564Z,17.18
2023-02-17T11:03:15.574Z,17.22
2023-02-17T11:04:15.635Z,17.23
2023-02-17T11:05:15.544Z,17.33
2023-02-17T11:06:15.544Z,17.23
2023-02-17T11:07:15.532Z,17.28
2023-02-17T11:08:15.532Z,17.23
2023-02-17T11:09:15.528Z,17.33
2023-02-17T11:10:15.541Z,17.25
2023-02-17T11:11:15.522Z,17.26
2023-02-17T11:12:15.521Z,17.33
2023-02-17T11:13:15.521Z,17.30
2023-02-17T11:14:15.534Z,17.30
2023-02-17T11:15:15.544Z,17.31
2023-02-17T11:16:15.519Z,17.28
2023-02-17T11:17:15.522Z,17.34
2023-02-17T11:18:15.494Z,17.31
2023-02-17T11:19:15.520Z,17.31
2023-02-17T11:20:15.502Z,17.30
2023-02-17T11:21:15.475Z,17.30
2023-02-17T11:22:15.493Z,17.28
2023-02-17T11:23:15.487Z,17.34
2023-02-17T11:24:15.489Z,17.33
2023-02-17T11:25:15.469Z,17.28
2023-02-17T11:26:15.469Z,17.33
2023-02-17T11:27:15.476Z,17.30
2023-02-17T11:28:15.467Z,17.34
2023-02-17T11:29:15.447Z,17.36
2023-02-17T11:30:15.529Z,17.31
2023-02-17T11:31:15.692Z,17.38
2023-02-17T11:32:15.553Z,17.34
2023-02-17T11:33:15.444Z,17.33
2023-02-17T11:34:15.437Z,17.30
2023-02-17T11:35:15.433Z,17.33
2023-02-17T11:36:15.419Z,17.33
2023-02-17T11:37:15.418Z,17.36
2023-02-17T11:38:15.414Z,17.33
2023-02-17T11:39:15.404Z,17.30
2023-02-17T11:40:15.412Z,17.34
2023-02-17T11:41:15.402Z,17.33
2023-02-17T11:42:15.403Z,17.36
2023-02-17T11:43:15.404Z,17.37
2023-02-17T11:44:15.386Z,17.25
2023-02-17T11:45:15.394Z,17.31
2023-02-17T11:46:15.446Z,17.37
2023-02-17T11:47:15.406Z,17.36
2023-02-17T11:48:15.378Z,17.36
2023-02-17T11:49:15.368Z,17.36
2023-02-17T11:50:15.380Z,17.33
2023-02-17T11:51:15.375Z,17.31
2023-02-17T11:52:15.359Z,17.31
2023-02-17T11:53:15.349Z,17.28
2023-02-17T11:54:15.351Z,17.31
2023-02-17T11:55:15.352Z,17.28
2023-02-17T11:56:15.374Z,17.31
2023-02-17T11:57:15.330Z,17.33
2023-02-17T11:58:15.343Z,17.37
2023-02-17T11:59:15.340Z,17.31
2023-02-17T12:00:15.340Z,17.31
2023-02-17T12:01:15.315Z,17.31
2023-02-17T12:02:15.317Z,17.34
2023-02-17T12:03:15.357Z,17.43
2023-02-17T12:04:15.309Z,17.43
2023-02-17T12:05:15.380Z,17.43
2023-02-17T12:06:15.309Z,17.44
2023-02-17T12:07:15.325Z,17.41
2023-02-17T12:08:15.289Z,17.48
2023-02-17T12:09:15.284Z,17.38
2023-02-17T12:10:15.309Z,17.46
2023-02-17T12:11:15.269Z,17.43
2023-02-17T12:12:15.268Z,17.40
2023-02-17T12:13:15.272Z,17.46
2023-02-17T12:14:15.288Z,17.48
2023-02-17T12:15:15.285Z,17.49
2023-02-17T12:16:15.379Z,17.40
2023-02-17T12:17:15.295Z,17.48
2023-02-17T12:18:15.251Z,17.46
2023-02-17T12:19:15.280Z,17.41
2023-02-17T12:20:15.255Z,17.52
2023-02-17T12:21:15.241Z,17.48
2023-02-17T12:22:15.287Z,17.41
2023-02-17T12:23:15.239Z,17.44
2023-02-17T12:24:15.237Z,17.54
2023-02-17T12:25:15.217Z,17.41
2023-02-17T12:26:15.222Z,17.48
2023-02-17T12:27:15.204Z,17.43
2023-02-17T12:28:15.229Z,17.46
2023-02-17T12:29:15.194Z,17.49
2023-02-17T12:30:15.310Z,17.48
2023-02-17T12:31:15.288Z,17.46
2023-02-17T12:32:15.227Z,17.43
2023-02-17T12:33:15.179Z,17.54
2023-02-17T12:34:15.179Z,17.51
2023-02-17T12:35:15.269Z,17.46
2023-02-17T12:36:15.195Z,17.46
2023-02-17T12:37:15.176Z,17.48
2023-02-17T12:38:15.167Z,17.48
2023-02-17T12:39:15.171Z,17.44
2023-02-17T12:40:15.237Z,17.52
2023-02-17T12:41:15.164Z,17.43
2023-02-17T12:42:15.142Z,17.56
2023-02-17T12:43:15.163Z,17.48
2023-02-17T12:44:15.159Z,17.51
2023-02-17T12:45:15.141Z,17.51
2023-02-17T12:46:15.194Z,17.49
2023-02-17T12:47:15.134Z,17.46
2023-02-17T12:48:15.135Z,17.54
2023-02-17T12:49:15.134Z,17.46
2023-02-17T12:50:15.266Z,17.48
2023-02-17T12:51:15.151Z,17.49
2023-02-17T12:52:15.113Z,17.56